This is the latest recevied weather packets stored in our database for station/object AE6DC-5. If no packets are shown the sender has not sent any weather packets the latest 1 day(s).
| Time | Temp. | Humidity | Pressure | Rain* | Wind** | Luminosity | Snow |
|---|---|---|---|---|---|---|---|
| 1836274364 | 17.22° C | 9% | - | 0 mm | 3.13 m/s, 222° | - | - |
| 1836274214 | 17.22° C | 9% | - | 0 mm | 2.24 m/s, 218° | - | - |
| 1778043590 | 13.89° C | 8% | - | 0 mm | 3.13 m/s, 280° | - | - |
| 1778042390 | 13.89° C | 9% | - | 0 mm | 2.24 m/s, 263° | - | - |
| 1778041789 | 13.89° C | 9% | - | 0 mm | 2.24 m/s, 258° | - | - |
| 1778041191 | 13.89° C | 9% | - | 0 mm | 2.24 m/s, 259° | - | - |
| 1778040589 | 13.89° C | 9% | - | 0 mm | 2.24 m/s, 262° | - | - |
| 1778039989 | 13.89° C | 9% | - | 0 mm | 2.68 m/s, 260° | - | - |
| 1778038790 | 13.89° C | 8% | - | 0 mm | 2.24 m/s, 262° | - | - |
| 1778037591 | 13.89° C | 8% | - | 0 mm | 2.24 m/s, 251° | - | - |
| 1778036989 | 13.89° C | 8% | - | 0 mm | 2.24 m/s, 255° | - | - |
| 1778036390 | 13.89° C | 8% | - | 0 mm | 2.24 m/s, 253° | - | - |
| 1778035789 | 13.89° C | 8% | - | 0 mm | 2.24 m/s, 250° | - | - |
| 1778035189 | 13.89° C | 8% | - | 0 mm | 2.68 m/s, 249° | - | - |
| 1778033989 | 13.33° C | 8% | - | 0 mm | 2.68 m/s, 247° | - | - |
| 1778032789 | 13.33° C | 8% | - | 0 mm | 4.02 m/s, 257° | - | - |
| 1778032189 | 13.33° C | 8% | - | 0 mm | 4.02 m/s, 255° | - | - |
| 1778031591 | 13.33° C | 8% | - | 0 mm | 4.02 m/s, 261° | - | - |
| 1778030390 | 13.33° C | 8% | - | 0 mm | 4.02 m/s, 257° | - | - |
| 1778029789 | 13.33° C | 8% | - | 0 mm | 4.02 m/s, 256° | - | - |
| 1778029190 | 13.33° C | 8% | - | 0 mm | 4.02 m/s, 258° | - | - |
| 1778028589 | 13.89° C | 8% | - | 0 mm | 4.02 m/s, 252° | - | - |
| 1778027990 | 13.33° C | 8% | - | 0 mm | 3.58 m/s, 250° | - | - |
| 1778026791 | 13.33° C | 8% | - | 0 mm | 4.02 m/s, 255° | - | - |
| 1778025590 | 13.33° C | 8% | - | 0 mm | 4.02 m/s, 254° | - | - |
* Rain latest hour (hover to see other rain measurements)
** Current wind speed in m/s (hover to see current wind gust speed)